Time;durP1;ratioP1;P1;durP2;ratioP2;P2;SDS_P1;SDS_P2;PMS_P1;PMS_P2;Temp;Humidity;BMP_temperature;BMP_pressure;BME280_temperature;BME280_humidity;BME280_pressure;Samples;Min_cycle;Max_cycle;Signal;HPM_P1;HPM_P2
2022/12/25 00:01:15;;;;;;;21.02;4.47;;;8.60;99.90;;;;;;20681906;28;20741;-43
2022/12/25 00:11:18;;;;;;;13.90;4.28;;;8.60;99.90;;;;;;20681886;28;20088;-43
2022/12/25 00:21:21;;;;;;;9.15;4.75;;;8.60;99.90;;;;;;20663305;28;20120;-43
2022/12/25 00:31:22;;;;;;;11.35;5.00;;;8.70;99.90;;;;;;20660646;28;20705;-43
2022/12/25 00:51:43;;;;;;;10.65;5.65;;;8.70;99.90;;;;;;20663474;28;20049;-43
2022/12/25 01:01:44;;;;;;;12.15;4.68;;;8.70;99.90;;;;;;20660832;28;20089;-43
2022/12/25 01:11:45;;;;;;;9.57;4.80;;;8.70;99.90;;;;;;20658949;28;20289;-43
2022/12/25 01:21:46;;;;;;;10.80;4.35;;;8.70;99.90;;;;;;20682394;28;20041;-42
2022/12/25 01:31:47;;;;;;;8.95;3.70;;;8.80;99.90;;;;;;20658790;28;20043;-43
2022/12/25 01:41:48;;;;;;;9.95;4.68;;;8.80;99.90;;;;;;20660730;28;20049;-43
2022/12/25 01:51:57;;;;;;;8.05;3.95;;;8.80;99.90;;;;;;20646794;28;20142;-43
2022/12/25 02:01:59;;;;;;;16.20;6.05;;;8.80;99.90;;;;;;20659478;28;20423;-43
2022/12/25 02:12:00;;;;;;;7.63;4.65;;;8.80;99.90;;;;;;20656865;28;20109;-43
2022/12/25 02:22:10;;;;;;;9.00;5.88;;;8.80;99.90;;;;;;20665340;28;20091;-43
2022/12/25 02:32:45;;;;;;;8.82;4.47;;;8.80;99.90;;;;;;20668683;28;22602;-43
2022/12/25 04:37:04;;;;;;;15.20;5.15;;;9.10;99.90;;;;;;20717382;28;20042;-40
2022/12/25 04:47:05;;;;;;;9.48;4.25;;;9.00;99.90;;;;;;20715291;28;20045;-41
2022/12/25 04:57:06;;;;;;;6.50;3.50;;;8.90;99.90;;;;;;20737958;28;21835;-41
2022/12/25 05:07:07;;;;;;;11.10;4.10;;;8.90;99.90;;;;;;20730544;28;20067;-41
2022/12/25 05:17:08;;;;;;;6.32;3.65;;;8.90;99.90;;;;;;20730538;28;20537;-41
2022/12/25 05:27:09;;;;;;;6.60;4.18;;;8.80;99.90;;;;;;20712815;28;21328;-41
2022/12/25 05:37:10;;;;;;;6.28;3.20;;;8.80;99.90;;;;;;20721491;28;20038;-41
2022/12/25 05:47:11;;;;;;;6.78;3.38;;;8.80;99.90;;;;;;20725320;28;20047;-41
2022/12/25 05:57:12;;;;;;;3.45;2.13;;;8.80;99.90;;;;;;20727595;28;20047;-41
2022/12/25 06:07:13;;;;;;;5.82;2.13;;;8.80;99.90;;;;;;20738413;28;20050;-41
2022/12/25 06:17:15;;;;;;;5.10;2.65;;;8.80;99.90;;;;;;20735480;28;20053;-41
2022/12/25 06:27:16;;;;;;;6.07;3.08;;;8.80;99.90;;;;;;20797090;28;20048;-41
2022/12/25 06:37:17;;;;;;;4.93;2.80;;;8.90;99.90;;;;;;20795915;28;20045;-41
2022/12/25 06:47:18;;;;;;;4.22;2.28;;;8.90;99.90;;;;;;20796457;28;20041;-41
2022/12/25 06:57:19;;;;;;;6.00;3.00;;;8.90;99.90;;;;;;20799589;28;20045;-41
2022/12/25 07:07:21;;;;;;;6.57;2.97;;;9.00;99.90;;;;;;20789899;28;20095;-41
2022/12/25 07:17:23;;;;;;;3.22;2.00;;;9.00;99.90;;;;;;20785448;28;20611;-41
2022/12/25 07:27:24;;;;;;;5.68;3.10;;;9.10;99.90;;;;;;20788009;28;20053;-41
2022/12/25 07:37:25;;;;;;;7.45;1.85;;;9.10;99.90;;;;;;20781621;28;20049;-41
2022/12/25 07:47:26;;;;;;;5.13;2.13;;;9.10;99.90;;;;;;20778877;28;20041;-41
2022/12/25 07:57:27;;;;;;;3.70;1.95;;;9.10;99.90;;;;;;20782263;28;20037;-41
2022/12/25 08:07:28;;;;;;;10.68;2.72;;;9.10;99.90;;;;;;20761968;28;20049;-41
2022/12/25 08:17:29;;;;;;;2.42;1.20;;;9.20;99.90;;;;;;20776774;28;20048;-41
2022/12/25 08:27:30;;;;;;;3.03;1.92;;;9.30;99.90;;;;;;20773550;28;20033;-41
2022/12/25 08:37:31;;;;;;;3.60;1.80;;;9.30;99.90;;;;;;20752079;28;20136;-41
2022/12/25 08:47:32;;;;;;;2.60;1.52;;;9.40;99.90;;;;;;20781849;28;20383;-41
2022/12/25 08:57:33;;;;;;;4.05;2.08;;;9.40;99.90;;;;;;20754126;28;20052;-41
2022/12/25 09:07:34;;;;;;;2.85;1.80;;;9.50;99.90;;;;;;20740521;28;20061;-41
2022/12/25 09:17:35;;;;;;;4.43;2.35;;;9.50;99.90;;;;;;20741207;28;20362;-41
2022/12/25 09:27:36;;;;;;;5.10;1.92;;;9.50;99.90;;;;;;20716034;28;20784;-41
2022/12/25 09:37:37;;;;;;;5.40;2.10;;;9.60;99.90;;;;;;20721597;28;20621;-41
2022/12/25 09:47:42;;;;;;;10.68;2.58;;;9.60;99.90;;;;;;20735156;28;20497;-41
2022/12/25 09:57:45;;;;;;;3.90;2.17;;;9.60;99.90;;;;;;20753550;28;20886;-41
2022/12/25 10:08:24;;;;;;;6.10;2.58;;;9.50;99.90;;;;;;20725274;28;20195;-41
2022/12/25 10:18:45;;;;;;;6.22;2.85;;;9.50;99.90;;;;;;20738596;28;22956;-40
2022/12/25 10:28:54;;;;;;;5.43;3.10;;;9.40;99.90;;;;;;20727845;28;20080;-40
2022/12/25 10:38:55;;;;;;;6.10;2.60;;;9.30;99.90;;;;;;20701932;28;20053;-40
2022/12/25 10:48:59;;;;;;;5.05;1.85;;;9.30;99.90;;;;;;20706692;28;20176;-40
2022/12/25 10:59:10;;;;;;;4.65;2.58;;;9.20;99.90;;;;;;20744837;28;20079;-40
2022/12/25 11:09:15;;;;;;;13.70;7.25;;;9.20;99.90;;;;;;20721754;28;20705;-40
2022/12/25 11:19:28;;;;;;;7.30;3.78;;;9.30;99.90;;;;;;20742848;28;20440;-39
2022/12/25 11:29:53;;;;;;;5.85;3.35;;;9.30;99.90;;;;;;20791858;28;20092;-39
2022/12/25 11:39:54;;;;;;;5.55;2.70;;;9.30;99.90;;;;;;20796554;28;20366;-39
2022/12/25 11:50:04;;;;;;;7.05;2.88;;;9.40;99.90;;;;;;20781501;28;20053;-40
2022/12/25 12:00:09;;;;;;;8.70;4.00;;;9.40;99.90;;;;;;20768014;28;20073;-40
2022/12/25 12:10:47;;;;;;;7.13;3.20;;;9.40;99.90;;;;;;20780133;28;20854;-39
2022/12/25 12:20:59;;;;;;;6.35;3.22;;;9.40;99.90;;;;;;20772058;28;20095;-40
2022/12/25 12:31:04;;;;;;;7.47;4.38;;;9.40;99.90;;;;;;20791880;28;20049;-39
2022/12/25 12:41:07;;;;;;;7.85;3.95;;;9.40;99.90;;;;;;20788024;28;20493;-40
2022/12/25 12:51:25;;;;;;;7.38;2.70;;;9.30;99.90;;;;;;20795536;28;20911;-40
2022/12/25 13:01:26;;;;;;;6.85;3.13;;;9.30;99.90;;;;;;20795420;28;20804;-39
2022/12/25 13:11:30;;;;;;;5.57;2.28;;;9.30;99.90;;;;;;20788421;28;20542;-39
2022/12/25 13:21:32;;;;;;;6.80;3.33;;;9.30;99.90;;;;;;20788462;28;20048;-39
2022/12/25 13:31:33;;;;;;;4.30;3.08;;;9.30;99.90;;;;;;20789020;28;20466;-39
2022/12/25 13:52:11;;;;;;;9.25;5.10;;;9.20;99.90;;;;;;20782909;28;20499;-39
2022/12/25 14:02:19;;;;;;;8.30;4.65;;;9.20;99.90;;;;;;20786625;28;20874;-39
2022/12/25 14:12:21;;;;;;;8.07;4.88;;;9.10;99.90;;;;;;20789492;28;20041;-40
2022/12/25 14:22:23;;;;;;;7.88;4.53;;;9.20;99.90;;;;;;20790240;28;20099;-39
2022/12/25 14:32:28;;;;;;;6.57;3.67;;;9.20;99.90;;;;;;20806981;28;20053;-39
2022/12/25 14:42:33;;;;;;;8.73;4.68;;;9.30;99.90;;;;;;20805711;28;20104;-40
2022/12/25 14:52:53;;;;;;;7.35;3.47;;;9.20;99.90;;;;;;20802782;28;20046;-40
2022/12/25 15:02:57;;;;;;;5.70;3.17;;;9.20;99.90;;;;;;20801872;28;20045;-40
2022/12/25 15:12:58;;;;;;;9.25;5.32;;;9.20;99.90;;;;;;20799183;28;20048;-40
2022/12/25 15:23:00;;;;;;;4.72;3.13;;;9.10;99.90;;;;;;20795124;28;20030;-40
2022/12/25 15:33:01;;;;;;;7.60;4.43;;;9.10;99.90;;;;;;20801149;28;20106;-40
2022/12/25 15:43:02;;;;;;;6.30;3.95;;;9.10;99.90;;;;;;20802869;28;20052;-39
2022/12/25 15:53:03;;;;;;;6.82;3.50;;;9.20;99.90;;;;;;20799395;28;20045;-40
2022/12/25 16:03:04;;;;;;;7.88;4.60;;;9.10;99.90;;;;;;20797827;28;20611;-40
2022/12/25 16:13:05;;;;;;;15.48;7.13;;;9.10;99.90;;;;;;20795703;28;20045;-40
2022/12/25 16:23:06;;;;;;;7.45;5.25;;;9.10;99.90;;;;;;20783440;28;20838;-40
2022/12/25 16:33:12;;;;;;;7.50;4.53;;;9.10;99.90;;;;;;20789909;28;20049;-40
2022/12/25 16:43:13;;;;;;;12.07;6.82;;;9.10;99.90;;;;;;20797604;28;22894;-40
2022/12/25 16:53:15;;;;;;;6.78;4.53;;;9.10;99.90;;;;;;20782306;28;20042;-40
2022/12/25 17:03:19;;;;;;;12.82;5.68;;;9.20;99.90;;;;;;20790826;28;20054;-39
2022/12/25 17:13:20;;;;;;;11.13;6.00;;;9.10;99.90;;;;;;20794798;28;20477;-40
2022/12/25 17:23:21;;;;;;;8.60;5.25;;;9.10;99.90;;;;;;20783318;28;20038;-39
2022/12/25 17:33:22;;;;;;;15.35;7.05;;;9.00;99.90;;;;;;20790335;28;20049;-40
2022/12/25 17:43:24;;;;;;;17.30;8.52;;;9.00;99.90;;;;;;20787049;28;20045;-40
2022/12/25 17:53:25;;;;;;;16.35;6.95;;;9.10;99.90;;;;;;20788203;28;20206;-40
2022/12/25 18:03:26;;;;;;;20.13;10.05;;;9.10;99.90;;;;;;20786692;28;20051;-40
2022/12/25 18:13:27;;;;;;;18.70;10.73;;;9.10;99.90;;;;;;20793010;28;20042;-40
2022/12/25 18:23:28;;;;;;;18.90;9.75;;;9.10;99.90;;;;;;20785122;28;20052;-40
2022/12/25 18:33:32;;;;;;;17.40;8.73;;;9.10;99.90;;;;;;20795431;28;20053;-40
2022/12/25 18:43:34;;;;;;;24.70;12.18;;;9.10;99.90;;;;;;20786116;28;20041;-40
2022/12/25 18:53:35;;;;;;;17.90;8.18;;;9.20;99.90;;;;;;20794471;28;20049;-39
2022/12/25 19:03:36;;;;;;;11.93;7.00;;;9.10;99.90;;;;;;20791851;28;20653;-39
2022/12/25 19:13:37;;;;;;;25.60;11.32;;;9.20;99.90;;;;;;20806583;28;20111;-39
2022/12/25 19:23:38;;;;;;;12.93;7.97;;;9.20;99.90;;;;;;20799763;28;20050;-40
2022/12/25 19:33:40;;;;;;;7.32;4.90;;;9.10;99.90;;;;;;20802506;28;20111;-40
2022/12/25 19:43:43;;;;;;;12.23;6.40;;;9.10;99.90;;;;;;20791761;28;20038;-39
2022/12/25 19:53:45;;;;;;;14.48;7.78;;;9.10;99.90;;;;;;20794123;28;20092;-39
2022/12/25 20:03:48;;;;;;;9.30;6.28;;;9.00;99.90;;;;;;20800243;28;20042;-39
2022/12/25 20:13:49;;;;;;;10.18;5.72;;;9.00;99.90;;;;;;20793081;28;20116;-39
2022/12/25 20:23:52;;;;;;;13.50;7.45;;;9.10;99.90;;;;;;20799075;28;20034;-40
2022/12/25 20:33:59;;;;;;;13.27;8.10;;;9.10;99.90;;;;;;20795849;28;20053;-39
2022/12/25 20:44:00;;;;;;;10.33;6.30;;;9.10;99.90;;;;;;20786847;28;20037;-39
2022/12/25 20:54:06;;;;;;;16.70;8.45;;;9.10;99.90;;;;;;20796427;28;20045;-39
2022/12/25 21:04:07;;;;;;;15.45;9.23;;;9.10;99.90;;;;;;20792989;28;20165;-40
2022/12/25 21:14:08;;;;;;;16.38;8.98;;;9.20;99.90;;;;;;20797136;28;20103;-39
2022/12/25 21:24:09;;;;;;;19.60;10.57;;;9.20;99.90;;;;;;20789946;28;20046;-40
2022/12/25 21:34:10;;;;;;;24.17;10.95;;;9.20;99.90;;;;;;20784876;28;20841;-40
2022/12/25 21:44:11;;;;;;;20.13;11.95;;;9.20;99.90;;;;;;20782084;28;20447;-39
2022/12/25 21:54:13;;;;;;;16.95;8.88;;;9.20;99.90;;;;;;20785149;28;20046;-39
2022/12/25 22:04:15;;;;;;;19.75;10.05;;;9.20;99.90;;;;;;20772003;28;20045;-40
2022/12/25 22:24:38;;;;;;;14.15;9.40;;;9.20;99.90;;;;;;20782593;28;20037;-39
2022/12/25 22:34:40;;;;;;;15.82;8.77;;;9.20;99.90;;;;;;20784159;28;20065;-39
2022/12/25 22:44:41;;;;;;;12.18;7.93;;;9.20;99.90;;;;;;20792320;28;20037;-39
2022/12/25 22:54:42;;;;;;;8.88;7.03;;;9.20;99.90;;;;;;20793641;28;20119;-39
2022/12/25 23:04:43;;;;;;;13.73;7.63;;;9.20;99.90;;;;;;20804285;28;20033;-39
2022/12/25 23:14:45;;;;;;;15.35;7.28;;;9.20;99.90;;;;;;20803324;28;20057;-39
2022/12/25 23:35:06;;;;;;;17.95;9.27;;;9.20;99.90;;;;;;20791274;28;20085;-39
2022/12/25 23:45:09;;;;;;;11.85;8.02;;;9.20;99.90;;;;;;20800552;28;20038;-39
2022/12/25 23:55:10;;;;;;;11.13;6.75;;;9.10;99.90;;;;;;20794387;28;20075;-39
